Time,TemperatureF,DewpointF,PressureIn,WindDirection,WindDirectionDegrees,WindSpeedMPH,WindSpeedGustMPH,Humidity,HourlyPrecipIn,Conditions,Clouds,dailyrainin,SoftwareType,DateUTC
2013-10-08 00:03:00,37.0,36.0,-100.00,SSE,150,0.0,1.0,98,-99.99,,,-99.99,,2013-10-08 05:03:00,
2013-10-08 00:22:00,36.0,36.0,-100.00,SE,145,1.0,1.0,98,-99.99,,,-99.99,,2013-10-08 05:22:00,
2013-10-08 00:34:00,36.0,36.0,-100.00,SE,145,1.0,1.0,98,-99.99,,,-99.99,,2013-10-08 05:34:00,
2013-10-08 00:42:00,36.0,36.0,-100.00,SE,145,1.0,1.0,98,-99.99,,,-99.99,,2013-10-08 05:42:00,
2013-10-08 00:53:00,36.0,36.0,-100.00,SE,145,1.0,1.0,98,-99.99,,,-99.99,,2013-10-08 05:53:00,
2013-10-08 01:02:00,36.0,36.0,-100.00,SE,145,1.0,1.0,98,-99.99,,,-99.99,,2013-10-08 06:02:00,
2013-10-08 01:22:00,36.0,36.0,-100.00,SSE,155,1.0,2.0,99,-99.99,,,-99.99,,2013-10-08 06:22:00,
2013-10-08 01:32:00,36.0,36.0,-100.00,SSE,155,1.0,2.0,99,-99.99,,,-99.99,,2013-10-08 06:32:00,
2013-10-08 01:42:00,36.0,36.0,-100.00,SSE,155,1.0,2.0,99,-99.99,,,-99.99,,2013-10-08 06:42:00,
2013-10-08 01:52:00,36.0,36.0,-100.00,SSE,155,1.0,2.0,99,-99.99,,,-99.99,,2013-10-08 06:52:00,
2013-10-08 02:02:00,36.0,36.0,-100.00,SSE,155,1.0,2.0,99,-99.99,,,-99.99,,2013-10-08 07:02:00,
2013-10-08 02:42:00,35.0,35.0,-100.00,SE,145,1.0,1.0,99,-99.99,,,-99.99,,2013-10-08 07:42:00,
2013-10-08 02:52:00,35.0,35.0,-100.00,SE,145,1.0,1.0,99,-99.99,,,-99.99,,2013-10-08 07:52:00,
2013-10-08 03:02:00,35.0,35.0,-100.00,SE,145,1.0,1.0,99,-99.99,,,-99.99,,2013-10-08 08:02:00,
2013-10-08 03:42:00,35.0,35.0,-100.00,South,170,1.0,2.0,99,-99.99,,,-99.99,,2013-10-08 08:42:00,
2013-10-08 03:52:00,35.0,35.0,-100.00,South,170,1.0,2.0,99,-99.99,,,-99.99,,2013-10-08 08:52:00,
2013-10-08 04:02:00,35.0,35.0,-100.00,South,170,1.0,2.0,99,-99.99,,,-99.99,,2013-10-08 09:02:00,
2013-10-08 04:43:00,35.0,35.0,-100.00,South,190,0.0,2.0,99,-99.99,,,-99.99,,2013-10-08 09:43:00,
2013-10-08 04:53:00,35.0,35.0,-100.00,South,190,0.0,2.0,99,-99.99,,,-99.99,,2013-10-08 09:53:00,
2013-10-08 05:03:00,35.0,35.0,-100.00,South,190,0.0,2.0,99,-99.99,,,-99.99,,2013-10-08 10:03:00,
2013-10-08 05:42:00,36.0,36.0,-100.00,SSE,160,2.0,5.0,99,-99.99,,,-99.99,,2013-10-08 10:42:00,
2013-10-08 05:53:00,36.0,36.0,-100.00,SSE,160,2.0,5.0,99,-99.99,,,-99.99,,2013-10-08 10:53:00,
2013-10-08 06:02:00,36.0,36.0,-100.00,SSE,160,2.0,5.0,99,-99.99,,,-99.99,,2013-10-08 11:02:00,
2013-10-08 06:22:00,38.0,37.0,-100.00,South,170,2.0,5.0,99,-99.99,,,-99.99,,2013-10-08 11:22:00,
2013-10-08 06:42:00,40.0,40.0,-100.00,SSE,160,3.0,5.0,99,-99.99,,,-99.99,,2013-10-08 11:42:00,
2013-10-08 06:52:00,40.0,40.0,-100.00,SSE,160,3.0,5.0,99,-99.99,,,-99.99,,2013-10-08 11:52:00,
2013-10-08 07:02:00,40.0,40.0,-100.00,SSE,160,3.0,5.0,99,-99.99,,,-99.99,,2013-10-08 12:02:00,
2013-10-08 07:22:00,44.0,42.0,-100.00,South,175,5.0,10.0,95,-99.99,,,-99.99,,2013-10-08 12:22:00,
2013-10-08 07:32:00,44.0,42.0,-100.00,South,175,5.0,10.0,95,-99.99,,,-99.99,,2013-10-08 12:32:00,
2013-10-08 07:42:00,44.0,42.0,-100.00,South,175,5.0,10.0,95,-99.99,,,-99.99,,2013-10-08 12:42:00,
2013-10-08 07:52:00,44.0,42.0,-100.00,South,175,5.0,10.0,95,-99.99,,,-99.99,,2013-10-08 12:52:00,
2013-10-08 08:01:00,44.0,42.0,-100.00,South,175,5.0,10.0,95,-99.99,,,-99.99,,2013-10-08 13:01:00,
2013-10-08 08:52:00,48.0,40.0,-100.00,South,185,6.0,14.0,74,-99.99,,,-99.99,,2013-10-08 13:52:00,
2013-10-08 09:02:00,48.0,40.0,-100.00,South,185,6.0,14.0,74,-99.99,,,-99.99,,2013-10-08 14:02:00,
2013-10-08 09:42:00,53.0,39.0,-100.00,South,190,6.0,13.0,59,-99.99,,,-99.99,,2013-10-08 14:42:00,
2013-10-08 09:52:00,53.0,39.0,-100.00,South,190,6.0,13.0,59,-99.99,,,-99.99,,2013-10-08 14:52:00,
2013-10-08 10:01:00,53.0,39.0,-100.00,South,190,6.0,13.0,59,-99.99,,,-99.99,,2013-10-08 15:01:00,
2013-10-08 10:44:00,57.0,39.0,-100.00,South,180,7.0,16.0,50,-99.99,,,-99.99,,2013-10-08 15:44:00,
2013-10-08 10:53:00,57.0,39.0,-100.00,South,180,7.0,16.0,50,-99.99,,,-99.99,,2013-10-08 15:53:00,
2013-10-08 11:03:00,57.0,39.0,-100.00,South,180,7.0,16.0,50,-99.99,,,-99.99,,2013-10-08 16:03:00,
2013-10-08 11:42:00,61.0,40.0,-100.00,South,175,7.0,15.0,45,-99.99,,,-99.99,,2013-10-08 16:42:00,
2013-10-08 11:53:00,61.0,40.0,-100.00,South,175,7.0,15.0,45,-99.99,,,-99.99,,2013-10-08 16:53:00,
2013-10-08 12:03:00,61.0,40.0,-100.00,South,175,7.0,15.0,45,-99.99,,,-99.99,,2013-10-08 17:03:00,
2013-10-08 12:23:00,65.0,40.0,-100.00,South,190,6.0,13.0,39,-99.99,,,-99.99,,2013-10-08 17:23:00,
2013-10-08 12:33:00,65.0,40.0,-100.00,South,190,6.0,13.0,39,-99.99,,,-99.99,,2013-10-08 17:33:00,
2013-10-08 12:43:00,65.0,40.0,-100.00,South,190,6.0,13.0,39,-99.99,,,-99.99,,2013-10-08 17:43:00,
2013-10-08 12:52:00,65.0,40.0,-100.00,South,190,6.0,13.0,39,-99.99,,,-99.99,,2013-10-08 17:52:00,
2013-10-08 13:02:00,65.0,40.0,-100.00,South,190,6.0,13.0,39,-99.99,,,-99.99,,2013-10-08 18:02:00,
2013-10-08 13:22:00,69.0,39.0,-100.00,SSW,205,6.0,19.0,34,-99.99,,,-99.99,,2013-10-08 18:22:00,
2013-10-08 13:42:00,69.0,39.0,-100.00,SSW,205,6.0,19.0,34,-99.99,,,-99.99,,2013-10-08 18:42:00,
2013-10-08 13:53:00,69.0,39.0,-100.00,SSW,205,6.0,19.0,34,-99.99,,,-99.99,,2013-10-08 18:53:00,
2013-10-08 14:02:00,69.0,39.0,-100.00,SSW,205,6.0,19.0,34,-99.99,,,-99.99,,2013-10-08 19:02:00,
2013-10-08 14:22:00,72.0,39.0,-100.00,SSW,200,7.0,15.0,30,-99.99,,,-99.99,,2013-10-08 19:22:00,
2013-10-08 14:32:00,72.0,39.0,-100.00,SSW,200,7.0,15.0,30,-99.99,,,-99.99,,2013-10-08 19:32:00,
2013-10-08 14:43:00,72.0,39.0,-100.00,SSW,200,7.0,15.0,30,-99.99,,,-99.99,,2013-10-08 19:43:00,
2013-10-08 14:52:00,72.0,39.0,-100.00,SSW,200,7.0,15.0,30,-99.99,,,-99.99,,2013-10-08 19:52:00,
2013-10-08 15:02:00,72.0,39.0,-100.00,SSW,200,7.0,15.0,30,-99.99,,,-99.99,,2013-10-08 20:02:00,
2013-10-08 15:22:00,73.0,37.0,-100.00,SSW,200,7.0,16.0,27,-99.99,,,-99.99,,2013-10-08 20:22:00,
2013-10-08 15:32:00,73.0,37.0,-100.00,SSW,200,7.0,16.0,27,-99.99,,,-99.99,,2013-10-08 20:32:00,
2013-10-08 15:42:00,73.0,37.0,-100.00,SSW,200,7.0,16.0,27,-99.99,,,-99.99,,2013-10-08 20:42:00,
2013-10-08 15:52:00,73.0,37.0,-100.00,SSW,200,7.0,16.0,27,-99.99,,,-99.99,,2013-10-08 20:52:00,
2013-10-08 16:02:00,73.0,37.0,-100.00,SSW,200,7.0,16.0,27,-99.99,,,-99.99,,2013-10-08 21:02:00,
2013-10-08 16:22:00,71.0,37.0,-100.00,SSW,195,6.0,21.0,29,-99.99,,,-99.99,,2013-10-08 21:22:00,
2013-10-08 16:34:00,71.0,37.0,-100.00,SSW,195,6.0,21.0,29,-99.99,,,-99.99,,2013-10-08 21:34:00,
2013-10-08 16:44:00,71.0,37.0,-100.00,SSW,195,6.0,21.0,29,-99.99,,,-99.99,,2013-10-08 21:44:00,
2013-10-08 16:54:00,71.0,37.0,-100.00,SSW,195,6.0,21.0,29,-99.99,,,-99.99,,2013-10-08 21:54:00,
2013-10-08 17:03:00,71.0,37.0,-100.00,SSW,195,6.0,21.0,29,-99.99,,,-99.99,,2013-10-08 22:03:00,
2013-10-08 17:24:00,69.0,37.0,-100.00,SSW,195,6.0,14.0,31,-99.99,,,-99.99,,2013-10-08 22:24:00,
2013-10-08 17:32:00,69.0,37.0,-100.00,SSW,195,6.0,14.0,31,-99.99,,,-99.99,,2013-10-08 22:32:00,
2013-10-08 17:49:00,69.0,37.0,-100.00,SSW,195,6.0,14.0,31,-99.99,,,-99.99,,2013-10-08 22:49:00,
2013-10-08 17:58:00,69.0,37.0,-100.00,SSW,195,6.0,14.0,31,-99.99,,,-99.99,,2013-10-08 22:58:00,
2013-10-08 18:23:00,66.0,36.0,-100.00,SSW,200,7.0,14.0,32,-99.99,,,-99.99,,2013-10-08 23:23:00,
2013-10-08 18:34:00,66.0,36.0,-100.00,SSW,200,7.0,14.0,32,-99.99,,,-99.99,,2013-10-08 23:34:00,
2013-10-08 18:42:00,66.0,36.0,-100.00,SSW,200,7.0,14.0,32,-99.99,,,-99.99,,2013-10-08 23:42:00,
2013-10-08 18:52:00,66.0,36.0,-100.00,SSW,200,7.0,14.0,32,-99.99,,,-99.99,,2013-10-08 23:52:00,
2013-10-08 19:02:00,66.0,36.0,-100.00,SSW,200,7.0,14.0,32,-99.99,,,-99.99,,2013-10-09 00:02:00,
2013-10-08 20:43:00,63.0,39.0,-100.00,SSE,165,6.0,13.0,41,-99.99,,,-99.99,,2013-10-09 01:43:00,
2013-10-08 20:52:00,63.0,39.0,-100.00,SSE,165,6.0,13.0,41,-99.99,,,-99.99,,2013-10-09 01:52:00,
2013-10-08 21:03:00,63.0,39.0,-100.00,SSE,165,6.0,13.0,41,-99.99,,,-99.99,,2013-10-09 02:03:00,
2013-10-08 22:05:00,63.0,38.0,-100.00,South,170,5.0,13.0,41,-99.99,,,-99.99,,2013-10-09 03:05:00,
2013-10-08 22:45:00,63.0,38.0,-100.00,South,170,5.0,13.0,41,-99.99,,,-99.99,,2013-10-09 03:45:00,
2013-10-08 22:54:00,63.0,38.0,-100.00,South,170,5.0,13.0,41,-99.99,,,-99.99,,2013-10-09 03:54:00,
2013-10-08 23:44:00,62.0,39.0,-100.00,South,180,6.0,15.0,43,-99.99,,,-99.99,,2013-10-09 04:44:00,
2013-10-08 23:54:00,62.0,39.0,-100.00,South,180,6.0,15.0,43,-99.99,,,-99.99,,2013-10-09 04:54:00,